Eastern Lake Ontario: Past 24 Hour Conditions

 

Port Colborne - 45142

04:00 PM EDT 16 September 2014Buoy position: 42.74N 79.35W
This table is a summary of hourly weather conditions for the past 24 hours.
Date / Time
(EDT)
Wind(knots) Wave height(m) Wave period(s) Pressure(kPa) Air tempC) Water tempC)
16 September 2014
16:00 WSW 12 gust 16 0.2 4.0 101.8 16 21
15:00 WSW 8 gust 10 0.2 4.0 101.8 16 21
14:00 W 8 gust 10 0.2 4.0 101.8 16 21
13:00 WNW 6 gust 8 0.3 4.0 101.9 16 20
12:00 NW 6 gust 8 0.3 4.0 101.9 15 20
11:00 NNW 8 gust 10 0.4 3.0 101.9 14 20
10:00 NNW 12 gust 14 0.4 3.0 102.0 14 20
9:00 NNW 10 gust 14 0.4 2.0 101.9 14 20
8:00 NNW 12 gust 14 0.4 3.0 101.9 14 20
7:00 N 12 gust 16 0.4 2.0 101.8 14 20
6:00 NNW 14 gust 16 0.3 3.0 101.8 14 20
5:00 NNW 8 gust 12 0.3 3.0 101.7 14 20
4:00 NNW 12 gust 14 0.3 4.0 101.7 15 20
3:00 NW 6 gust 8 0.3 4.0 101.7 15 20
2:00 NW 6 gust 8 0.4 4.0 101.7 15 20
1:00 WNW 8 gust 12 0.4 4.0 101.8 15 20
0:00 WNW 8 gust 12 0.5 4.0 101.8 15 20
15 September 2014
23:00 WNW 12 N/A N/A 101.8 15 N/A
22:00 WNW 10 gust 14 0.5 4.0 101.8 15 20
21:00 NW 12 gust 16 0.6 4.0 101.8 15 20
20:00 NNW 8 gust 10 0.6 4.0 101.8 15 20
19:00 WNW 8 gust 14 0.5 4.0 101.8 16 20
18:00 W 10 gust 14 0.4 3.0 101.8 18 20
17:00 WSW 8 gust 12 0.3 3.0 101.9 18 20
16:00 SW 8 gust 8 0.3 3.0 101.9 17 20
 
Map of Great Lakes - Lake Erie and Lake Ontario marine weather areas Egbert N Huron - 45003 W Erie - 45005 S Huron - 45008 Lake Ontario - 45012 Port Stanley - 45132 Prince Edward Point - 45135 Georgian Bay - 45137 Grimsby - 45139 Port Colborne - 45142 South Georgian Bay - 45143 Lake St Clair - 45147 South Lake Huron - 45149 Lake Simcoe - 45151 Lake Nipissing - 45152 North Channel - 45154 Ajax - 45159 Sault Ste. Marie Airport Greater Sudbury Airport North Bay Airport Gore Bay-Manitoulin Airport Great Duck Island Brockville Grenadier Island Kemptville Kingston Airport Collingwood Lagoon City Muskoka Airport Parry Sound Harbour Lake Simcoe Regional Airport Wiarton Airport Goderich Sarnia Chris Hadfield Airport Tobermory Harrow AAFC Port Weller St. Catharines Airport Southeast Shoal Vineland Station Welland-Pelham Windsor Airport Burlington Lift Bridge Cobourg Hamilton Munro Int'l Airport Oshawa Municipal Airport Point Petre Toronto City Centre Airport Toronto Pearson Int'l Airport CFB Trenton Peterborough Municipal Airport Killarney Western Islands CFB Borden Cove Island Long Point Port Colborne Erieau Point Pelee Toronto Buttonville Municipal Airport
Legend: buoyBuoy land stationLand Station » US Marine Weather